Aviation Digital Data Service (ADDS)

Output produced by TAFs form (0810 UTC 18 November 2017)
found at http://aviationweather.gov/adds/tafs/
 
KGJT 180548Z 1806/1906 33014KT P6SM FEW110 
     FM180800 32004KT P6SM SKC 
     FM181100 08004KT P6SM SKC 
     FM181400 14004KT P6SM SKC 
     FM181900 33005KT P6SM SKC 
     FM190100 08004KT P6SM SKC